createdAt,value
2017-12-03T12:37:17.827Z,1010.13
2017-12-03T12:38:25.999Z,1010.21
2017-12-03T12:39:35.844Z,1010.14
2017-12-03T12:40:46.591Z,1010.13
2017-12-03T12:41:55.915Z,1010.15
2017-12-03T12:43:05.785Z,1010.10
2017-12-03T12:44:16.392Z,1010.13
2017-12-03T12:45:26.863Z,1010.07
2017-12-03T12:46:40.445Z,1010.11
2017-12-03T12:47:50.561Z,1010.04
2017-12-03T12:49:03.583Z,1010.03
2017-12-03T12:50:12.470Z,1010.02
2017-12-03T12:51:22.866Z,1009.95
2017-12-03T12:52:31.585Z,1009.99
2017-12-03T12:53:46.589Z,1009.95
2017-12-03T12:54:56.308Z,1009.91
2017-12-03T12:56:07.187Z,1009.90
2017-12-03T12:57:19.240Z,1009.92
2017-12-03T12:58:29.120Z,1009.90
2017-12-03T12:59:38.342Z,1009.87
2017-12-03T13:00:48.952Z,1009.97
2017-12-03T13:01:59.404Z,1010.00
2017-12-03T13:03:09.981Z,1009.91
2017-12-03T13:04:21.627Z,1009.92
2017-12-03T13:05:32.280Z,1009.91
2017-12-03T13:06:42.464Z,1009.96
2017-12-03T13:07:54.182Z,1009.99
2017-12-03T13:09:05.619Z,1009.95
2017-12-03T13:10:14.660Z,1009.99
2017-12-03T13:11:25.512Z,1009.93
2017-12-03T13:12:35.130Z,1009.92
2017-12-03T13:14:57.085Z,1009.84
2017-12-03T13:16:07.906Z,1009.89
2017-12-03T13:17:18.988Z,1009.83
2017-12-03T13:18:28.325Z,1009.96
2017-12-03T13:19:42.029Z,1009.85
2017-12-03T13:20:50.140Z,1009.78
2017-12-03T13:21:59.821Z,1009.87
2017-12-03T13:23:07.182Z,1009.76
2017-12-03T13:24:17.468Z,1009.72
2017-12-03T13:25:27.118Z,1009.77
2017-12-03T13:26:36.521Z,1009.80
2017-12-03T13:27:46.655Z,1009.71
2017-12-03T13:28:57.726Z,1009.68
2017-12-03T13:30:07.124Z,1009.64
2017-12-03T13:31:21.387Z,1009.68
2017-12-03T13:32:30.824Z,1009.68
2017-12-03T13:33:40.785Z,1009.68
2017-12-03T13:34:52.608Z,1009.72
2017-12-03T13:36:06.703Z,1009.71
2017-12-03T13:37:17.348Z,1009.71
2017-12-03T13:38:26.805Z,1009.66
2017-12-03T13:39:36.663Z,1009.76
2017-12-03T13:40:45.924Z,1009.73
2017-12-03T13:41:55.588Z,1009.70
2017-12-03T13:43:04.687Z,1009.68
2017-12-03T13:44:15.710Z,1009.67
2017-12-03T13:45:25.630Z,1009.64
2017-12-03T13:46:35.565Z,1009.68
2017-12-03T13:47:45.905Z,1009.63
2017-12-03T13:48:59.912Z,1009.70
2017-12-03T13:50:09.208Z,1009.69
2017-12-03T13:51:18.921Z,1009.65
2017-12-03T13:52:30.382Z,1009.64
2017-12-03T13:53:56.423Z,1009.68
2017-12-03T13:55:17.584Z,1009.65
2017-12-03T13:56:54.693Z,1009.61
2017-12-03T13:58:22.260Z,1009.64
2017-12-03T13:59:32.409Z,1009.64
